sensor_id;sensor_type;location;lat;lon;timestamp;temperature;humidity
39493;DHT22;25176;51.060;3.720;2023-07-13T00:00:17;19.30;89.20
39493;DHT22;25176;51.060;3.720;2023-07-13T00:02:42;19.20;89.80
39493;DHT22;25176;51.060;3.720;2023-07-13T00:05:08;19.30;90.10
39493;DHT22;25176;51.060;3.720;2023-07-13T00:07:34;19.30;90.20
39493;DHT22;25176;51.060;3.720;2023-07-13T00:10:00;19.30;90.30
39493;DHT22;25176;51.060;3.720;2023-07-13T00:12:27;19.20;90.30
39493;DHT22;25176;51.060;3.720;2023-07-13T00:14:55;19.20;90.30
39493;DHT22;25176;51.060;3.720;2023-07-13T00:17:21;19.20;90.60
39493;DHT22;25176;51.060;3.720;2023-07-13T00:19:47;19.30;90.60
39493;DHT22;25176;51.060;3.720;2023-07-13T00:22:13;19.20;90.70
39493;DHT22;25176;51.060;3.720;2023-07-13T00:24:38;19.20;90.90
39493;DHT22;25176;51.060;3.720;2023-07-13T00:27:10;19.10;91.10
39493;DHT22;25176;51.060;3.720;2023-07-13T00:29:36;19.00;91.50
39493;DHT22;25176;51.060;3.720;2023-07-13T00:32:04;19.00;91.60
39493;DHT22;25176;51.060;3.720;2023-07-13T00:34:30;19.00;91.90
39493;DHT22;25176;51.060;3.720;2023-07-13T00:36:56;19.00;91.90
39493;DHT22;25176;51.060;3.720;2023-07-13T00:39:21;19.00;92.00
39493;DHT22;25176;51.060;3.720;2023-07-13T00:41:48;19.00;92.10
39493;DHT22;25176;51.060;3.720;2023-07-13T00:44:14;19.00;92.30
39493;DHT22;25176;51.060;3.720;2023-07-13T00:46:40;18.90;92.30
39493;DHT22;25176;51.060;3.720;2023-07-13T00:49:06;18.90;92.40
39493;DHT22;25176;51.060;3.720;2023-07-13T00:51:36;19.00;92.40
39493;DHT22;25176;51.060;3.720;2023-07-13T00:54:05;18.90;92.60
39493;DHT22;25176;51.060;3.720;2023-07-13T00:56:31;18.90;92.70
39493;DHT22;25176;51.060;3.720;2023-07-13T00:58:58;18.90;93.00
39493;DHT22;25176;51.060;3.720;2023-07-13T01:01:24;18.80;93.10
39493;DHT22;25176;51.060;3.720;2023-07-13T01:03:50;18.80;93.10
39493;DHT22;25176;51.060;3.720;2023-07-13T01:06:15;18.80;93.30
39493;DHT22;25176;51.060;3.720;2023-07-13T01:08:43;18.80;93.40
39493;DHT22;25176;51.060;3.720;2023-07-13T01:11:08;18.80;93.50
39493;DHT22;25176;51.060;3.720;2023-07-13T01:13:34;18.80;93.60
39493;DHT22;25176;51.060;3.720;2023-07-13T01:16:01;18.70;93.60
39493;DHT22;25176;51.060;3.720;2023-07-13T01:18:29;18.80;93.80
39493;DHT22;25176;51.060;3.720;2023-07-13T01:20:58;18.70;93.80
39493;DHT22;25176;51.060;3.720;2023-07-13T01:23:24;18.80;94.10
39493;DHT22;25176;51.060;3.720;2023-07-13T01:25:50;18.80;94.00
39493;DHT22;25176;51.060;3.720;2023-07-13T01:28:16;18.80;93.90
39493;DHT22;25176;51.060;3.720;2023-07-13T01:30:42;18.80;94.10
39493;DHT22;25176;51.060;3.720;2023-07-13T01:33:11;18.70;94.20
39493;DHT22;25176;51.060;3.720;2023-07-13T01:35:37;18.70;94.40
39493;DHT22;25176;51.060;3.720;2023-07-13T01:38:03;18.60;94.50
39493;DHT22;25176;51.060;3.720;2023-07-13T01:40:29;18.70;94.60
39493;DHT22;25176;51.060;3.720;2023-07-13T01:42:55;18.70;94.60
39493;DHT22;25176;51.060;3.720;2023-07-13T01:45:20;18.70;94.50
39493;DHT22;25176;51.060;3.720;2023-07-13T01:47:46;18.80;94.60
39493;DHT22;25176;51.060;3.720;2023-07-13T01:50:11;18.70;94.50
39493;DHT22;25176;51.060;3.720;2023-07-13T01:52:37;18.70;94.50
39493;DHT22;25176;51.060;3.720;2023-07-13T01:55:02;18.80;94.60
39493;DHT22;25176;51.060;3.720;2023-07-13T01:57:28;18.70;94.50
39493;DHT22;25176;51.060;3.720;2023-07-13T01:59:53;18.70;94.70
39493;DHT22;25176;51.060;3.720;2023-07-13T02:02:19;18.70;94.60
39493;DHT22;25176;51.060;3.720;2023-07-13T02:04:45;18.70;94.70
39493;DHT22;25176;51.060;3.720;2023-07-13T02:07:10;18.70;94.80
39493;DHT22;25176;51.060;3.720;2023-07-13T02:09:36;18.80;94.80
39493;DHT22;25176;51.060;3.720;2023-07-13T02:12:01;18.80;94.70
39493;DHT22;25176;51.060;3.720;2023-07-13T02:14:27;18.70;94.80
39493;DHT22;25176;51.060;3.720;2023-07-13T02:16:52;18.80;94.90
39493;DHT22;25176;51.060;3.720;2023-07-13T02:19:18;18.70;95.20
39493;DHT22;25176;51.060;3.720;2023-07-13T02:21:43;18.70;95.20
39493;DHT22;25176;51.060;3.720;2023-07-13T02:24:09;18.70;95.20
39493;DHT22;25176;51.060;3.720;2023-07-13T02:26:34;18.70;95.10
39493;DHT22;25176;51.060;3.720;2023-07-13T02:29:00;18.70;95.20
39493;DHT22;25176;51.060;3.720;2023-07-13T02:31:25;18.60;95.40
39493;DHT22;25176;51.060;3.720;2023-07-13T02:33:51;18.60;95.40
39493;DHT22;25176;51.060;3.720;2023-07-13T02:36:16;18.60;95.60
39493;DHT22;25176;51.060;3.720;2023-07-13T02:38:43;18.60;95.70
39493;DHT22;25176;51.060;3.720;2023-07-13T02:41:09;18.60;95.50
39493;DHT22;25176;51.060;3.720;2023-07-13T02:43:35;18.60;95.60
39493;DHT22;25176;51.060;3.720;2023-07-13T02:46:01;18.60;95.50
39493;DHT22;25176;51.060;3.720;2023-07-13T02:48:36;18.60;95.60
39493;DHT22;25176;51.060;3.720;2023-07-13T02:51:01;18.70;95.50
39493;DHT22;25176;51.060;3.720;2023-07-13T02:53:27;18.50;95.80
39493;DHT22;25176;51.060;3.720;2023-07-13T02:55:52;18.50;95.90
39493;DHT22;25176;51.060;3.720;2023-07-13T02:58:18;18.40;95.90
39493;DHT22;25176;51.060;3.720;2023-07-13T03:00:44;18.40;96.10
39493;DHT22;25176;51.060;3.720;2023-07-13T03:03:11;18.40;96.20
39493;DHT22;25176;51.060;3.720;2023-07-13T03:05:40;18.40;96.10
39493;DHT22;25176;51.060;3.720;2023-07-13T03:08:05;18.50;96.20
39493;DHT22;25176;51.060;3.720;2023-07-13T03:10:32;18.40;96.20
39493;DHT22;25176;51.060;3.720;2023-07-13T03:12:57;18.50;95.90
39493;DHT22;25176;51.060;3.720;2023-07-13T03:15:23;18.40;96.10
39493;DHT22;25176;51.060;3.720;2023-07-13T03:17:49;18.30;96.40
39493;DHT22;25176;51.060;3.720;2023-07-13T03:20:15;18.20;96.80
39493;DHT22;25176;51.060;3.720;2023-07-13T03:22:40;18.20;96.80
39493;DHT22;25176;51.060;3.720;2023-07-13T03:25:07;18.20;96.80
39493;DHT22;25176;51.060;3.720;2023-07-13T03:27:32;18.40;96.60
39493;DHT22;25176;51.060;3.720;2023-07-13T03:29:58;18.50;96.40
39493;DHT22;25176;51.060;3.720;2023-07-13T03:32:23;18.50;96.30
39493;DHT22;25176;51.060;3.720;2023-07-13T03:34:49;18.40;96.40
39493;DHT22;25176;51.060;3.720;2023-07-13T03:37:14;18.50;96.40
39493;DHT22;25176;51.060;3.720;2023-07-13T03:39:40;18.40;96.40
39493;DHT22;25176;51.060;3.720;2023-07-13T03:42:06;18.40;96.60
39493;DHT22;25176;51.060;3.720;2023-07-13T03:44:31;18.40;96.70
39493;DHT22;25176;51.060;3.720;2023-07-13T03:46:57;18.30;96.70
39493;DHT22;25176;51.060;3.720;2023-07-13T03:49:22;18.30;96.80
39493;DHT22;25176;51.060;3.720;2023-07-13T03:51:48;18.30;96.60
39493;DHT22;25176;51.060;3.720;2023-07-13T03:54:13;18.30;96.90
39493;DHT22;25176;51.060;3.720;2023-07-13T03:56:39;18.40;96.80
39493;DHT22;25176;51.060;3.720;2023-07-13T03:59:04;18.40;96.70
39493;DHT22;25176;51.060;3.720;2023-07-13T04:01:30;18.30;96.80
39493;DHT22;25176;51.060;3.720;2023-07-13T04:03:55;18.30;97.00
39493;DHT22;25176;51.060;3.720;2023-07-13T04:06:27;18.30;97.20
39493;DHT22;25176;51.060;3.720;2023-07-13T04:08:54;18.40;97.00
39493;DHT22;25176;51.060;3.720;2023-07-13T04:11:20;18.40;96.80
39493;DHT22;25176;51.060;3.720;2023-07-13T04:13:47;18.30;97.00
39493;DHT22;25176;51.060;3.720;2023-07-13T04:16:13;18.40;97.30
39493;DHT22;25176;51.060;3.720;2023-07-13T04:18:38;18.30;97.10
39493;DHT22;25176;51.060;3.720;2023-07-13T04:21:04;18.40;97.00
39493;DHT22;25176;51.060;3.720;2023-07-13T04:23:29;18.50;96.70
39493;DHT22;25176;51.060;3.720;2023-07-13T04:25:55;18.60;96.90
39493;DHT22;25176;51.060;3.720;2023-07-13T04:28:21;18.60;96.60
39493;DHT22;25176;51.060;3.720;2023-07-13T04:30:48;18.60;96.60
39493;DHT22;25176;51.060;3.720;2023-07-13T04:33:14;18.70;96.60
39493;DHT22;25176;51.060;3.720;2023-07-13T04:35:40;18.70;96.60
39493;DHT22;25176;51.060;3.720;2023-07-13T04:38:05;18.60;96.70
39493;DHT22;25176;51.060;3.720;2023-07-13T04:40:31;18.60;96.90
39493;DHT22;25176;51.060;3.720;2023-07-13T04:42:57;18.70;96.90
39493;DHT22;25176;51.060;3.720;2023-07-13T04:45:22;18.70;96.50
39493;DHT22;25176;51.060;3.720;2023-07-13T04:47:49;18.60;96.60
39493;DHT22;25176;51.060;3.720;2023-07-13T04:50:14;18.70;96.50
39493;DHT22;25176;51.060;3.720;2023-07-13T04:52:51;18.80;96.50
39493;DHT22;25176;51.060;3.720;2023-07-13T04:55:16;18.80;96.40
39493;DHT22;25176;51.060;3.720;2023-07-13T04:57:43;18.80;96.70
39493;DHT22;25176;51.060;3.720;2023-07-13T05:00:08;18.80;96.40
39493;DHT22;25176;51.060;3.720;2023-07-13T05:02:37;18.90;96.50
39493;DHT22;25176;51.060;3.720;2023-07-13T05:05:03;18.90;96.50
39493;DHT22;25176;51.060;3.720;2023-07-13T05:07:29;19.00;96.20
39493;DHT22;25176;51.060;3.720;2023-07-13T05:09:55;19.10;96.10
39493;DHT22;25176;51.060;3.720;2023-07-13T05:12:20;19.10;96.10
39493;DHT22;25176;51.060;3.720;2023-07-13T05:14:46;19.10;96.10
39493;DHT22;25176;51.060;3.720;2023-07-13T05:17:11;19.10;96.20
39493;DHT22;25176;51.060;3.720;2023-07-13T05:19:37;19.00;96.30
39493;DHT22;25176;51.060;3.720;2023-07-13T05:22:02;19.30;96.30
39493;DHT22;25176;51.060;3.720;2023-07-13T05:24:29;19.30;95.60
39493;DHT22;25176;51.060;3.720;2023-07-13T05:26:54;19.30;95.80
39493;DHT22;25176;51.060;3.720;2023-07-13T05:29:21;19.30;95.70
39493;DHT22;25176;51.060;3.720;2023-07-13T05:31:46;19.40;96.00
39493;DHT22;25176;51.060;3.720;2023-07-13T05:34:12;19.40;95.80
39493;DHT22;25176;51.060;3.720;2023-07-13T05:36:37;19.50;95.70
39493;DHT22;25176;51.060;3.720;2023-07-13T05:39:03;19.50;95.60
39493;DHT22;25176;51.060;3.720;2023-07-13T05:41:29;19.60;95.60
39493;DHT22;25176;51.060;3.720;2023-07-13T05:43:54;19.60;95.50
39493;DHT22;25176;51.060;3.720;2023-07-13T05:46:20;19.70;95.50
39493;DHT22;25176;51.060;3.720;2023-07-13T05:48:45;19.80;95.10
39493;DHT22;25176;51.060;3.720;2023-07-13T05:51:11;19.90;95.20
39493;DHT22;25176;51.060;3.720;2023-07-13T05:53:36;19.90;95.10
39493;DHT22;25176;51.060;3.720;2023-07-13T05:56:02;19.90;94.90
39493;DHT22;25176;51.060;3.720;2023-07-13T05:58:27;19.90;95.00
39493;DHT22;25176;51.060;3.720;2023-07-13T06:01:06;19.90;94.90
39493;DHT22;25176;51.060;3.720;2023-07-13T06:03:32;20.10;94.80
39493;DHT22;25176;51.060;3.720;2023-07-13T06:05:57;20.20;94.50
39493;DHT22;25176;51.060;3.720;2023-07-13T06:08:25;20.20;94.50
39493;DHT22;25176;51.060;3.720;2023-07-13T06:10:51;20.40;94.40
39493;DHT22;25176;51.060;3.720;2023-07-13T06:13:16;20.60;94.20
39493;DHT22;25176;51.060;3.720;2023-07-13T06:15:42;20.70;93.60
39493;DHT22;25176;51.060;3.720;2023-07-13T06:18:07;20.90;93.50
39493;DHT22;25176;51.060;3.720;2023-07-13T06:20:34;20.90;93.30
39493;DHT22;25176;51.060;3.720;2023-07-13T06:23:00;20.90;93.30
39493;DHT22;25176;51.060;3.720;2023-07-13T06:25:26;21.00;93.20
39493;DHT22;25176;51.060;3.720;2023-07-13T06:27:51;21.10;93.10
39493;DHT22;25176;51.060;3.720;2023-07-13T06:30:17;21.10;93.00
39493;DHT22;25176;51.060;3.720;2023-07-13T06:32:42;21.10;92.90
39493;DHT22;25176;51.060;3.720;2023-07-13T06:35:08;21.20;92.60
39493;DHT22;25176;51.060;3.720;2023-07-13T06:37:33;21.50;92.50
39493;DHT22;25176;51.060;3.720;2023-07-13T06:39:59;21.70;92.20
39493;DHT22;25176;51.060;3.720;2023-07-13T06:42:24;21.50;92.20
39493;DHT22;25176;51.060;3.720;2023-07-13T06:44:50;21.40;92.40
39493;DHT22;25176;51.060;3.720;2023-07-13T06:47:15;21.60;92.40
39493;DHT22;25176;51.060;3.720;2023-07-13T06:49:41;21.80;91.90
39493;DHT22;25176;51.060;3.720;2023-07-13T06:52:06;22.10;91.60
39493;DHT22;25176;51.060;3.720;2023-07-13T06:54:32;22.20;91.00
39493;DHT22;25176;51.060;3.720;2023-07-13T06:56:57;21.90;91.10
39493;DHT22;25176;51.060;3.720;2023-07-13T06:59:23;21.60;91.90
39493;DHT22;25176;51.060;3.720;2023-07-13T07:01:48;21.70;91.90
39493;DHT22;25176;51.060;3.720;2023-07-13T07:04:14;22.20;91.00
39493;DHT22;25176;51.060;3.720;2023-07-13T07:06:39;23.20;90.30
39493;DHT22;25176;51.060;3.720;2023-07-13T07:09:05;24.40;86.00
39493;DHT22;25176;51.060;3.720;2023-07-13T07:11:30;25.30;81.50
39493;DHT22;25176;51.060;3.720;2023-07-13T07:13:56;26.60;76.30
39493;DHT22;25176;51.060;3.720;2023-07-13T07:16:21;28.30;71.30
39493;DHT22;25176;51.060;3.720;2023-07-13T07:18:47;29.30;65.90
39493;DHT22;25176;51.060;3.720;2023-07-13T07:21:13;30.60;63.90
39493;DHT22;25176;51.060;3.720;2023-07-13T07:23:39;31.50;60.10
39493;DHT22;25176;51.060;3.720;2023-07-13T07:26:04;32.50;58.80
39493;DHT22;25176;51.060;3.720;2023-07-13T07:28:30;32.80;57.10
39493;DHT22;25176;51.060;3.720;2023-07-13T07:30:56;33.50;55.10
39493;DHT22;25176;51.060;3.720;2023-07-13T07:33:22;33.10;54.70
39493;DHT22;25176;51.060;3.720;2023-07-13T07:35:47;32.60;54.10
39493;DHT22;25176;51.060;3.720;2023-07-13T07:38:13;32.10;55.60
39493;DHT22;25176;51.060;3.720;2023-07-13T07:40:39;32.70;54.40
39493;DHT22;25176;51.060;3.720;2023-07-13T07:43:06;33.20;53.80
39493;DHT22;25176;51.060;3.720;2023-07-13T07:45:31;34.10;53.60
39493;DHT22;25176;51.060;3.720;2023-07-13T07:47:57;34.80;51.70
39493;DHT22;25176;51.060;3.720;2023-07-13T07:50:24;33.80;51.40
39493;DHT22;25176;51.060;3.720;2023-07-13T07:52:50;33.60;51.50
39493;DHT22;25176;51.060;3.720;2023-07-13T07:55:15;35.10;51.70
39493;DHT22;25176;51.060;3.720;2023-07-13T07:57:41;36.30;50.00
39493;DHT22;25176;51.060;3.720;2023-07-13T08:00:06;35.40;49.70
39493;DHT22;25176;51.060;3.720;2023-07-13T08:02:32;35.30;49.60
39493;DHT22;25176;51.060;3.720;2023-07-13T08:04:57;35.10;49.20
39493;DHT22;25176;51.060;3.720;2023-07-13T08:07:23;34.40;50.30
39493;DHT22;25176;51.060;3.720;2023-07-13T08:09:51;34.90;50.00
39493;DHT22;25176;51.060;3.720;2023-07-13T08:12:17;34.50;49.20
39493;DHT22;25176;51.060;3.720;2023-07-13T08:14:43;35.10;49.40
39493;DHT22;25176;51.060;3.720;2023-07-13T08:17:08;35.70;49.30
39493;DHT22;25176;51.060;3.720;2023-07-13T08:19:34;34.10;49.40
39493;DHT22;25176;51.060;3.720;2023-07-13T08:21:59;32.80;51.40
39493;DHT22;25176;51.060;3.720;2023-07-13T08:24:24;32.30;52.20
39493;DHT22;25176;51.060;3.720;2023-07-13T08:26:50;31.30;53.90
39493;DHT22;25176;51.060;3.720;2023-07-13T08:29:16;30.90;53.90
39493;DHT22;25176;51.060;3.720;2023-07-13T08:31:41;30.80;54.70
39493;DHT22;25176;51.060;3.720;2023-07-13T08:34:07;31.00;54.20
39493;DHT22;25176;51.060;3.720;2023-07-13T08:36:32;31.10;53.10
39493;DHT22;25176;51.060;3.720;2023-07-13T08:38:58;30.70;53.90
39493;DHT22;25176;51.060;3.720;2023-07-13T08:41:23;32.20;52.10
39493;DHT22;25176;51.060;3.720;2023-07-13T08:43:51;34.20;50.60
39493;DHT22;25176;51.060;3.720;2023-07-13T08:46:28;34.60;48.70
39493;DHT22;25176;51.060;3.720;2023-07-13T08:48:58;36.20;46.60
39493;DHT22;25176;51.060;3.720;2023-07-13T08:53:51;37.90;45.20
39493;DHT22;25176;51.060;3.720;2023-07-13T08:56:24;38.80;44.60
39493;DHT22;25176;51.060;3.720;2023-07-13T08:59:13;39.80;44.10
39493;DHT22;25176;51.060;3.720;2023-07-13T09:04:22;40.20;43.60
39493;DHT22;25176;51.060;3.720;2023-07-13T09:06:58;40.00;42.20
39493;DHT22;25176;51.060;3.720;2023-07-13T09:14:31;40.30;42.10
39493;DHT22;25176;51.060;3.720;2023-07-13T09:16:58;39.00;42.70
39493;DHT22;25176;51.060;3.720;2023-07-13T09:19:27;39.10;42.80
39493;DHT22;25176;51.060;3.720;2023-07-13T09:21:53;39.40;43.00
39493;DHT22;25176;51.060;3.720;2023-07-13T09:27:10;40.40;41.00
39493;DHT22;25176;51.060;3.720;2023-07-13T09:29:38;40.70;40.90
39493;DHT22;25176;51.060;3.720;2023-07-13T09:32:09;42.80;40.10
39493;DHT22;25176;51.060;3.720;2023-07-13T09:34:35;43.40;39.30
39493;DHT22;25176;51.060;3.720;2023-07-13T09:37:01;43.10;39.20
39493;DHT22;25176;51.060;3.720;2023-07-13T09:44:42;41.50;40.30
39493;DHT22;25176;51.060;3.720;2023-07-13T09:50:09;41.00;40.70
39493;DHT22;25176;51.060;3.720;2023-07-13T09:57:49;43.70;39.30
39493;DHT22;25176;51.060;3.720;2023-07-13T10:00:20;43.00;38.90
39493;DHT22;25176;51.060;3.720;2023-07-13T10:02:46;45.10;38.80
39493;DHT22;25176;51.060;3.720;2023-07-13T10:05:22;44.70;37.80
39493;DHT22;25176;51.060;3.720;2023-07-13T10:07:50;42.80;38.60
39493;DHT22;25176;51.060;3.720;2023-07-13T10:10:21;40.60;39.90
39493;DHT22;25176;51.060;3.720;2023-07-13T10:12:47;40.70;40.20
39493;DHT22;25176;51.060;3.720;2023-07-13T10:15:17;39.20;40.90
39493;DHT22;25176;51.060;3.720;2023-07-13T10:17:42;38.90;40.90
39493;DHT22;25176;51.060;3.720;2023-07-13T10:20:09;38.60;41.80
39493;DHT22;25176;51.060;3.720;2023-07-13T10:25:23;38.40;41.30
39493;DHT22;25176;51.060;3.720;2023-07-13T10:27:53;36.90;42.30
39493;DHT22;25176;51.060;3.720;2023-07-13T10:30:21;35.30;44.00
39493;DHT22;25176;51.060;3.720;2023-07-13T10:32:48;34.40;44.70
39493;DHT22;25176;51.060;3.720;2023-07-13T10:35:15;34.20;45.30
39493;DHT22;25176;51.060;3.720;2023-07-13T10:37:51;33.60;45.90
39493;DHT22;25176;51.060;3.720;2023-07-13T10:40:25;32.60;46.50
39493;DHT22;25176;51.060;3.720;2023-07-13T10:42:52;31.50;48.30
39493;DHT22;25176;51.060;3.720;2023-07-13T10:45:21;30.60;49.00
39493;DHT22;25176;51.060;3.720;2023-07-13T10:47:47;29.60;52.20
39493;DHT22;25176;51.060;3.720;2023-07-13T10:50:19;28.90;55.00
39493;DHT22;25176;51.060;3.720;2023-07-13T10:52:52;28.10;59.30
39493;DHT22;25176;51.060;3.720;2023-07-13T10:58:22;26.40;68.50
39493;DHT22;25176;51.060;3.720;2023-07-13T11:03:17;25.30;72.70
39493;DHT22;25176;51.060;3.720;2023-07-13T11:05:44;24.80;70.70
39493;DHT22;25176;51.060;3.720;2023-07-13T11:08:18;24.60;74.00
39493;DHT22;25176;51.060;3.720;2023-07-13T11:10:47;24.60;73.40
39493;DHT22;25176;51.060;3.720;2023-07-13T11:15:58;24.80;75.90
39493;DHT22;25176;51.060;3.720;2023-07-13T11:18:24;24.80;72.90
39493;DHT22;25176;51.060;3.720;2023-07-13T11:20:50;24.90;73.40
39493;DHT22;25176;51.060;3.720;2023-07-13T11:25:42;25.00;74.90
39493;DHT22;25176;51.060;3.720;2023-07-13T11:30:38;25.40;74.00
39493;DHT22;25176;51.060;3.720;2023-07-13T11:33:16;25.30;72.70
39493;DHT22;25176;51.060;3.720;2023-07-13T11:38:24;25.60;73.50
39493;DHT22;25176;51.060;3.720;2023-07-13T11:40:53;26.10;71.90
39493;DHT22;25176;51.060;3.720;2023-07-13T11:43:19;26.80;70.40
39493;DHT22;25176;51.060;3.720;2023-07-13T11:45:49;27.40;67.60
39493;DHT22;25176;51.060;3.720;2023-07-13T11:48:17;27.50;65.50
39493;DHT22;25176;51.060;3.720;2023-07-13T11:50:43;27.70;66.10
39493;DHT22;25176;51.060;3.720;2023-07-13T11:53:14;28.10;65.90
39493;DHT22;25176;51.060;3.720;2023-07-13T11:55:40;28.50;65.00
39493;DHT22;25176;51.060;3.720;2023-07-13T11:58:07;28.70;64.70
39493;DHT22;25176;51.060;3.720;2023-07-13T12:00:34;28.90;64.10
39493;DHT22;25176;51.060;3.720;2023-07-13T12:03:01;28.70;63.30
39493;DHT22;25176;51.060;3.720;2023-07-13T12:05:27;28.80;63.70
39493;DHT22;25176;51.060;3.720;2023-07-13T12:07:53;28.60;63.60
39493;DHT22;25176;51.060;3.720;2023-07-13T12:10:29;28.80;63.50
39493;DHT22;25176;51.060;3.720;2023-07-13T12:12:56;28.40;62.60
39493;DHT22;25176;51.060;3.720;2023-07-13T12:15:22;28.00;62.50
39493;DHT22;25176;51.060;3.720;2023-07-13T12:17:48;27.70;63.20
39493;DHT22;25176;51.060;3.720;2023-07-13T12:20:21;27.70;62.90
39493;DHT22;25176;51.060;3.720;2023-07-13T12:22:47;27.80;62.80
39493;DHT22;25176;51.060;3.720;2023-07-13T12:25:12;27.90;61.40
39493;DHT22;25176;51.060;3.720;2023-07-13T12:27:38;28.00;61.70
39493;DHT22;25176;51.060;3.720;2023-07-13T12:30:05;28.30;61.80
39493;DHT22;25176;51.060;3.720;2023-07-13T12:32:31;28.60;60.80
39493;DHT22;25176;51.060;3.720;2023-07-13T12:35:16;28.80;60.40
39493;DHT22;25176;51.060;3.720;2023-07-13T12:37:42;28.80;60.30
39493;DHT22;25176;51.060;3.720;2023-07-13T12:40:15;28.80;60.30
39493;DHT22;25176;51.060;3.720;2023-07-13T12:42:41;29.00;58.70
39493;DHT22;25176;51.060;3.720;2023-07-13T12:47:42;28.80;58.20
39493;DHT22;25176;51.060;3.720;2023-07-13T12:50:15;28.60;58.30
39493;DHT22;25176;51.060;3.720;2023-07-13T12:52:42;28.70;59.10
39493;DHT22;25176;51.060;3.720;2023-07-13T12:55:13;28.60;59.60
39493;DHT22;25176;51.060;3.720;2023-07-13T12:57:51;28.00;60.50
39493;DHT22;25176;51.060;3.720;2023-07-13T13:02:48;27.70;61.30
39493;DHT22;25176;51.060;3.720;2023-07-13T13:05:15;27.60;61.70
39493;DHT22;25176;51.060;3.720;2023-07-13T13:07:40;27.70;61.20
39493;DHT22;25176;51.060;3.720;2023-07-13T13:10:11;27.90;60.50
39493;DHT22;25176;51.060;3.720;2023-07-13T13:12:36;28.00;60.40
39493;DHT22;25176;51.060;3.720;2023-07-13T13:15:02;28.30;59.80
39493;DHT22;25176;51.060;3.720;2023-07-13T13:17:29;28.30;58.60
39493;DHT22;25176;51.060;3.720;2023-07-13T13:19:55;28.00;58.50
39493;DHT22;25176;51.060;3.720;2023-07-13T13:22:22;27.80;57.80
39493;DHT22;25176;51.060;3.720;2023-07-13T13:24:47;27.30;57.20
39493;DHT22;25176;51.060;3.720;2023-07-13T13:27:23;27.20;57.40
39493;DHT22;25176;51.060;3.720;2023-07-13T13:29:51;27.00;57.90
39493;DHT22;25176;51.060;3.720;2023-07-13T13:32:17;27.00;58.40
39493;DHT22;25176;51.060;3.720;2023-07-13T13:34:44;26.90;57.80
39493;DHT22;25176;51.060;3.720;2023-07-13T13:37:15;27.10;56.80
39493;DHT22;25176;51.060;3.720;2023-07-13T13:39:43;27.00;56.90
39493;DHT22;25176;51.060;3.720;2023-07-13T13:42:09;27.20;56.00
39493;DHT22;25176;51.060;3.720;2023-07-13T13:44:35;27.10;55.50
39493;DHT22;25176;51.060;3.720;2023-07-13T13:47:00;27.00;55.70
39493;DHT22;25176;51.060;3.720;2023-07-13T13:49:27;26.90;55.40
39493;DHT22;25176;51.060;3.720;2023-07-13T13:51:53;26.90;55.20
39493;DHT22;25176;51.060;3.720;2023-07-13T13:54:20;26.90;55.70
39493;DHT22;25176;51.060;3.720;2023-07-13T13:56:46;27.00;56.30
39493;DHT22;25176;51.060;3.720;2023-07-13T13:59:12;26.90;55.60
39493;DHT22;25176;51.060;3.720;2023-07-13T14:01:38;26.90;55.60
39493;DHT22;25176;51.060;3.720;2023-07-13T14:04:05;27.00;55.50
39493;DHT22;25176;51.060;3.720;2023-07-13T14:06:31;27.00;54.70
39493;DHT22;25176;51.060;3.720;2023-07-13T14:08:56;27.10;54.50
39493;DHT22;25176;51.060;3.720;2023-07-13T14:11:22;27.00;54.90
39493;DHT22;25176;51.060;3.720;2023-07-13T14:13:48;26.90;55.40
39493;DHT22;25176;51.060;3.720;2023-07-13T14:16:15;26.80;56.10
39493;DHT22;25176;51.060;3.720;2023-07-13T14:18:43;26.60;56.00
39493;DHT22;25176;51.060;3.720;2023-07-13T14:21:22;26.70;56.10
39493;DHT22;25176;51.060;3.720;2023-07-13T14:23:48;26.70;55.70
39493;DHT22;25176;51.060;3.720;2023-07-13T14:26:17;26.70;55.70
39493;DHT22;25176;51.060;3.720;2023-07-13T14:28:45;26.60;55.60
39493;DHT22;25176;51.060;3.720;2023-07-13T14:31:11;26.80;56.20
39493;DHT22;25176;51.060;3.720;2023-07-13T14:33:37;26.70;55.90
39493;DHT22;25176;51.060;3.720;2023-07-13T14:36:03;26.60;56.50
39493;DHT22;25176;51.060;3.720;2023-07-13T14:38:32;26.70;55.90
39493;DHT22;25176;51.060;3.720;2023-07-13T14:41:00;26.60;55.40
39493;DHT22;25176;51.060;3.720;2023-07-13T14:43:26;26.50;55.30
39493;DHT22;25176;51.060;3.720;2023-07-13T14:45:54;26.60;55.60
39493;DHT22;25176;51.060;3.720;2023-07-13T14:48:22;26.50;55.20
39493;DHT22;25176;51.060;3.720;2023-07-13T14:50:55;26.50;55.90
39493;DHT22;25176;51.060;3.720;2023-07-13T14:53:21;26.50;55.80
39493;DHT22;25176;51.060;3.720;2023-07-13T14:55:47;26.50;56.50
39493;DHT22;25176;51.060;3.720;2023-07-13T14:58:13;26.50;56.20
39493;DHT22;25176;51.060;3.720;2023-07-13T15:00:39;26.50;54.20
39493;DHT22;25176;51.060;3.720;2023-07-13T15:03:05;26.50;54.80
39493;DHT22;25176;51.060;3.720;2023-07-13T15:05:31;26.50;55.10
39493;DHT22;25176;51.060;3.720;2023-07-13T15:07:58;26.30;55.80
39493;DHT22;25176;51.060;3.720;2023-07-13T15:10:26;26.30;55.90
39493;DHT22;25176;51.060;3.720;2023-07-13T15:12:52;26.30;55.60
39493;DHT22;25176;51.060;3.720;2023-07-13T15:15:18;26.30;55.70
39493;DHT22;25176;51.060;3.720;2023-07-13T15:17:44;26.50;55.80
39493;DHT22;25176;51.060;3.720;2023-07-13T15:20:23;26.30;56.00
39493;DHT22;25176;51.060;3.720;2023-07-13T15:22:50;26.30;55.90
39493;DHT22;25176;51.060;3.720;2023-07-13T15:25:25;26.30;55.80
39493;DHT22;25176;51.060;3.720;2023-07-13T15:27:52;26.30;56.10
39493;DHT22;25176;51.060;3.720;2023-07-13T15:30:18;26.60;56.30
39493;DHT22;25176;51.060;3.720;2023-07-13T15:32:43;26.30;55.30
39493;DHT22;25176;51.060;3.720;2023-07-13T15:35:13;26.30;54.70
39493;DHT22;25176;51.060;3.720;2023-07-13T15:37:39;26.20;55.10
39493;DHT22;25176;51.060;3.720;2023-07-13T15:40:05;26.10;55.00
39493;DHT22;25176;51.060;3.720;2023-07-13T15:42:32;26.00;54.60
39493;DHT22;25176;51.060;3.720;2023-07-13T15:44:57;25.90;54.90
39493;DHT22;25176;51.060;3.720;2023-07-13T15:47:23;26.10;55.10
39493;DHT22;25176;51.060;3.720;2023-07-13T15:49:49;26.10;54.50
39493;DHT22;25176;51.060;3.720;2023-07-13T15:52:18;26.10;53.70
39493;DHT22;25176;51.060;3.720;2023-07-13T15:54:45;26.20;53.90
39493;DHT22;25176;51.060;3.720;2023-07-13T15:57:10;26.20;52.70
39493;DHT22;25176;51.060;3.720;2023-07-13T15:59:37;26.20;52.50
39493;DHT22;25176;51.060;3.720;2023-07-13T16:02:13;26.20;52.80
39493;DHT22;25176;51.060;3.720;2023-07-13T16:04:38;25.90;53.20
39493;DHT22;25176;51.060;3.720;2023-07-13T16:07:04;25.80;54.50
39493;DHT22;25176;51.060;3.720;2023-07-13T16:09:29;25.80;54.60
39493;DHT22;25176;51.060;3.720;2023-07-13T16:11:55;25.70;54.50
39493;DHT22;25176;51.060;3.720;2023-07-13T16:14:22;25.70;54.90
39493;DHT22;25176;51.060;3.720;2023-07-13T16:16:50;25.80;55.50